createdAt,value
2023-01-15T00:00:02.844Z,43.48
2023-01-15T00:01:02.953Z,43.48
2023-01-15T00:02:02.822Z,43.48
2023-01-15T00:03:02.770Z,43.48
2023-01-15T00:04:02.780Z,43.48
2023-01-15T00:05:02.786Z,43.48
2023-01-15T00:06:02.743Z,43.48
2023-01-15T00:07:02.734Z,43.48
2023-01-15T00:08:02.755Z,43.48
2023-01-15T00:09:02.726Z,43.38
2023-01-15T00:10:02.681Z,43.38
2023-01-15T00:11:59.460Z,43.38
2023-01-15T00:12:59.445Z,43.48
2023-01-15T00:13:59.465Z,43.38
2023-01-15T00:14:59.424Z,43.48
2023-01-15T00:15:59.470Z,43.48
2023-01-15T00:16:59.415Z,43.38
2023-01-15T00:17:59.413Z,43.38
2023-01-15T00:18:59.418Z,43.48
2023-01-15T00:19:59.391Z,43.48
2023-01-15T00:20:59.366Z,43.48
2023-01-15T00:21:59.368Z,43.48
2023-01-15T00:22:59.344Z,43.48
2023-01-15T00:23:59.334Z,43.48
2023-01-15T00:24:59.304Z,43.48
2023-01-15T00:25:59.302Z,43.60
2023-01-15T00:26:59.490Z,43.58
2023-01-15T00:28:01.597Z,43.60
2023-01-15T00:28:59.285Z,43.60
2023-01-15T00:29:59.290Z,43.70
2023-01-15T00:30:59.274Z,43.60
2023-01-15T00:31:59.257Z,43.60
2023-01-15T00:32:59.257Z,43.70
2023-01-15T00:33:59.276Z,43.60
2023-01-15T00:34:59.216Z,43.60
2023-01-15T00:35:59.222Z,43.60
2023-01-15T00:36:59.196Z,43.70
2023-01-15T00:37:59.189Z,43.60
2023-01-15T00:38:59.255Z,43.60
2023-01-15T00:39:59.188Z,43.70
2023-01-15T00:40:59.142Z,43.60
2023-01-15T00:41:59.173Z,43.70
2023-01-15T00:42:59.134Z,43.60
2023-01-15T00:43:59.166Z,43.70
2023-01-15T00:44:59.108Z,43.70
2023-01-15T00:45:59.139Z,43.70
2023-01-15T00:46:59.087Z,43.70
2023-01-15T00:47:59.096Z,43.70
2023-01-15T00:48:59.087Z,43.70
2023-01-15T00:49:59.067Z,43.70
2023-01-15T00:50:59.047Z,43.70
2023-01-15T00:51:59.064Z,43.70
2023-01-15T00:52:59.023Z,43.70
2023-01-15T00:53:59.042Z,43.70
2023-01-15T00:54:59.020Z,43.70
2023-01-15T00:55:58.997Z,43.70
2023-01-15T00:56:59.024Z,43.70
2023-01-15T00:57:58.993Z,43.70
2023-01-15T00:58:58.963Z,43.70
2023-01-15T00:59:58.997Z,43.70
2023-01-15T01:00:59.052Z,43.70
2023-01-15T01:01:59.064Z,43.70
2023-01-15T01:02:58.916Z,43.70
2023-01-15T01:03:58.957Z,43.70
2023-01-15T01:04:58.908Z,43.80
2023-01-15T01:05:58.906Z,43.70
2023-01-15T01:06:58.903Z,43.70
2023-01-15T01:07:58.904Z,43.80
2023-01-15T01:08:58.875Z,43.80
2023-01-15T01:09:59.744Z,43.80
2023-01-15T01:10:58.840Z,43.80
2023-01-15T01:11:58.877Z,43.80
2023-01-15T01:12:58.830Z,43.80
2023-01-15T01:13:58.818Z,43.70
2023-01-15T01:14:58.798Z,43.80
2023-01-15T01:15:58.873Z,43.90
2023-01-15T01:16:58.777Z,43.80
2023-01-15T01:17:58.789Z,43.80
2023-01-15T01:18:58.772Z,43.80
2023-01-15T01:19:58.737Z,43.80
2023-01-15T01:20:58.775Z,43.80
2023-01-15T01:21:58.741Z,43.90
2023-01-15T01:22:58.734Z,43.80
2023-01-15T01:23:58.708Z,43.80
2023-01-15T01:24:58.718Z,43.80
2023-01-15T01:25:58.707Z,43.80
2023-01-15T01:26:58.711Z,43.80
2023-01-15T01:27:58.677Z,43.90
2023-01-15T01:28:58.677Z,43.90
2023-01-15T01:29:58.647Z,43.90
2023-01-15T01:30:58.663Z,43.90
2023-01-15T01:31:58.674Z,43.80
2023-01-15T01:32:58.625Z,43.90
2023-01-15T01:33:58.624Z,43.90
2023-01-15T01:34:58.613Z,43.90
2023-01-15T01:35:58.571Z,43.90
2023-01-15T01:36:58.590Z,43.90
2023-01-15T01:37:58.578Z,43.90
2023-01-15T01:38:58.559Z,43.92
2023-01-15T01:39:58.573Z,43.92
2023-01-15T01:40:58.548Z,43.92
2023-01-15T01:41:58.520Z,44.02
2023-01-15T01:42:58.527Z,43.92
2023-01-15T01:43:58.518Z,43.92
2023-01-15T01:44:58.566Z,43.92
2023-01-15T01:45:58.532Z,43.92
2023-01-15T01:46:58.508Z,43.92
2023-01-15T01:47:58.467Z,43.92
2023-01-15T01:48:58.463Z,43.92
2023-01-15T01:49:58.435Z,43.92
2023-01-15T01:50:58.434Z,43.92
2023-01-15T01:51:58.404Z,43.92
2023-01-15T01:52:58.455Z,43.92
2023-01-15T01:53:58.396Z,44.02
2023-01-15T01:54:58.385Z,44.02
2023-01-15T01:55:58.393Z,43.92
2023-01-15T01:56:58.393Z,44.02
2023-01-15T01:57:58.360Z,43.92
2023-01-15T01:58:58.416Z,44.02
2023-01-15T01:59:58.347Z,44.02
2023-01-15T02:00:58.472Z,44.02
2023-01-15T02:01:58.407Z,44.02
2023-01-15T02:02:58.328Z,44.02
2023-01-15T02:03:58.315Z,44.02
2023-01-15T02:04:58.324Z,44.02
2023-01-15T02:05:58.265Z,44.02
2023-01-15T02:06:58.283Z,44.02
2023-01-15T02:07:58.248Z,44.12
2023-01-15T02:08:58.263Z,44.02
2023-01-15T02:09:58.245Z,44.02
2023-01-15T02:10:58.240Z,44.02
2023-01-15T02:11:58.251Z,44.02
2023-01-15T02:12:58.226Z,44.02
2023-01-15T02:13:58.208Z,44.12
2023-01-15T02:14:58.196Z,44.02
2023-01-15T02:15:58.194Z,44.12
2023-01-15T02:16:58.178Z,44.02
2023-01-15T02:17:58.158Z,44.12
2023-01-15T02:18:59.129Z,44.12
2023-01-15T02:19:58.135Z,44.02
2023-01-15T02:20:58.125Z,44.02
2023-01-15T02:21:58.106Z,44.02
2023-01-15T02:22:58.106Z,44.02
2023-01-15T02:23:58.090Z,44.02
2023-01-15T02:24:58.119Z,44.12
2023-01-15T02:25:58.071Z,44.12
2023-01-15T02:26:58.088Z,44.12
2023-01-15T02:27:58.047Z,44.12
2023-01-15T02:28:58.058Z,44.12
2023-01-15T02:29:58.065Z,44.12
2023-01-15T02:30:58.024Z,44.12
2023-01-15T02:31:58.042Z,44.12
2023-01-15T02:32:58.015Z,44.12
2023-01-15T02:33:57.985Z,44.12
2023-01-15T02:35:00.536Z,44.23
2023-01-15T02:35:57.972Z,44.12
2023-01-15T02:36:57.978Z,44.12
2023-01-15T02:37:57.954Z,44.12
2023-01-15T02:38:57.949Z,44.12
2023-01-15T02:39:57.932Z,44.12
2023-01-15T02:40:57.948Z,44.12
2023-01-15T02:41:57.918Z,44.12
2023-01-15T02:42:57.907Z,44.12
2023-01-15T02:43:57.888Z,44.12
2023-01-15T02:44:57.885Z,44.12
2023-01-15T02:45:57.941Z,44.12
2023-01-15T02:46:58.036Z,44.12
2023-01-15T02:47:57.901Z,44.12
2023-01-15T02:48:57.900Z,44.12
2023-01-15T02:49:57.843Z,44.12
2023-01-15T02:50:57.993Z,44.12
2023-01-15T02:51:57.850Z,44.12
2023-01-15T02:52:57.826Z,44.23
2023-01-15T02:53:57.838Z,44.12
2023-01-15T02:54:57.833Z,44.23
2023-01-15T02:55:57.794Z,44.23
2023-01-15T02:56:57.815Z,44.12
2023-01-15T02:57:57.758Z,44.23
2023-01-15T02:58:57.770Z,44.23
2023-01-15T02:59:57.717Z,44.23
2023-01-15T03:00:57.787Z,44.23
2023-01-15T03:01:57.751Z,44.24
2023-01-15T03:02:57.706Z,44.23
2023-01-15T03:03:57.679Z,44.23
2023-01-15T03:04:57.684Z,44.23
2023-01-15T03:05:57.681Z,44.23
2023-01-15T03:06:57.651Z,44.24
2023-01-15T03:07:57.637Z,44.24
2023-01-15T03:08:57.659Z,44.24
2023-01-15T03:09:57.615Z,44.23
2023-01-15T03:10:57.628Z,44.24
2023-01-15T03:11:57.623Z,44.24
2023-01-15T03:12:57.611Z,44.24
2023-01-15T03:13:57.582Z,44.24
2023-01-15T03:14:57.597Z,44.24
2023-01-15T03:15:57.537Z,44.24
2023-01-15T03:16:57.572Z,44.24
2023-01-15T03:17:57.527Z,44.24
2023-01-15T03:18:57.529Z,44.24
2023-01-15T03:19:57.499Z,44.35
2023-01-15T03:20:58.840Z,44.35
2023-01-15T03:21:57.504Z,44.24
2023-01-15T03:22:57.497Z,44.24
2023-01-15T03:23:57.484Z,44.24
2023-01-15T03:24:57.492Z,44.24
2023-01-15T03:25:57.458Z,44.35
2023-01-15T03:26:57.471Z,44.35
2023-01-15T03:27:57.426Z,44.35
2023-01-15T03:28:57.438Z,44.35
2023-01-15T03:29:57.397Z,44.35
2023-01-15T03:30:57.458Z,44.35
2023-01-15T03:31:57.400Z,44.35
2023-01-15T03:32:57.408Z,44.35
2023-01-15T03:33:57.369Z,44.35
2023-01-15T03:34:58.321Z,44.35
2023-01-15T03:35:57.375Z,44.35
2023-01-15T03:36:57.359Z,44.35
2023-01-15T03:37:57.345Z,44.45
2023-01-15T03:38:57.333Z,44.35
2023-01-15T03:39:57.305Z,44.35
2023-01-15T03:40:57.297Z,44.35
2023-01-15T03:41:57.741Z,44.35
2023-01-15T03:42:57.287Z,44.45
2023-01-15T03:43:57.257Z,44.35
2023-01-15T03:44:57.260Z,44.35
2023-01-15T03:45:57.302Z,44.35
2023-01-15T03:46:57.286Z,44.35
2023-01-15T03:47:57.233Z,44.35
2023-01-15T03:48:57.230Z,44.35
2023-01-15T03:49:57.209Z,44.35
2023-01-15T03:50:57.216Z,44.35
2023-01-15T03:51:57.199Z,44.45
2023-01-15T03:52:57.184Z,44.35
2023-01-15T03:53:57.215Z,44.35
2023-01-15T03:54:57.171Z,44.35
2023-01-15T03:55:57.148Z,44.35
2023-01-15T03:56:57.149Z,44.35
2023-01-15T03:57:57.118Z,44.35
2023-01-15T03:58:57.127Z,44.45
2023-01-15T03:59:57.123Z,44.45
2023-01-15T04:00:57.254Z,44.45
2023-01-15T04:01:57.179Z,44.45
2023-01-15T04:02:57.077Z,44.45
2023-01-15T04:03:57.089Z,44.55
2023-01-15T04:04:57.059Z,44.45
2023-01-15T04:05:57.080Z,44.45
2023-01-15T04:06:57.040Z,44.45
2023-01-15T04:07:57.020Z,44.45
2023-01-15T04:08:57.035Z,44.45
2023-01-15T04:09:57.010Z,44.45
2023-01-15T04:10:57.174Z,44.45
2023-01-15T04:11:56.968Z,44.45
2023-01-15T04:12:56.971Z,44.45
2023-01-15T04:13:56.958Z,44.45
2023-01-15T04:14:56.940Z,44.45
2023-01-15T04:15:56.972Z,44.45
2023-01-15T04:16:56.947Z,44.45
2023-01-15T04:17:56.898Z,44.45
2023-01-15T04:18:56.898Z,44.45
2023-01-15T04:19:56.929Z,44.45
2023-01-15T04:20:56.937Z,44.45
2023-01-15T04:21:56.911Z,44.45
2023-01-15T04:22:56.890Z,44.45
2023-01-15T04:23:56.878Z,44.55
2023-01-15T04:24:56.851Z,44.45
2023-01-15T04:25:56.839Z,44.55
2023-01-15T04:26:56.863Z,44.55
2023-01-15T04:27:56.807Z,44.45
2023-01-15T04:28:56.810Z,44.45
2023-01-15T04:29:56.768Z,44.45
2023-01-15T04:30:56.867Z,44.45
2023-01-15T04:31:56.773Z,44.45
2023-01-15T04:32:56.841Z,44.45
2023-01-15T04:33:56.742Z,44.45
2023-01-15T04:34:56.750Z,44.45
2023-01-15T04:35:56.718Z,44.45
2023-01-15T04:36:56.717Z,44.45
2023-01-15T04:37:56.697Z,44.45
2023-01-15T04:38:56.718Z,44.45
2023-01-15T04:39:56.674Z,44.45
2023-01-15T04:40:56.679Z,44.45
2023-01-15T04:41:56.650Z,44.45
2023-01-15T04:42:56.659Z,44.45
2023-01-15T04:43:56.642Z,44.45
2023-01-15T04:44:56.653Z,44.45
2023-01-15T04:45:56.625Z,44.47
2023-01-15T04:46:56.683Z,44.47
2023-01-15T04:47:56.591Z,44.45
2023-01-15T04:48:56.601Z,44.47
2023-01-15T04:49:56.592Z,44.47
2023-01-15T04:50:56.594Z,44.47
2023-01-15T04:51:56.550Z,44.47
2023-01-15T04:52:56.578Z,44.47
2023-01-15T04:53:56.543Z,44.47
2023-01-15T04:54:56.531Z,44.47
2023-01-15T04:55:56.519Z,44.47
2023-01-15T04:56:56.523Z,44.47
2023-01-15T04:57:56.498Z,44.47
2023-01-15T04:58:56.508Z,44.47
2023-01-15T04:59:56.479Z,44.47
2023-01-15T05:00:56.576Z,44.47
2023-01-15T05:02:06.302Z,44.47
2023-01-15T05:02:57.480Z,44.47
2023-01-15T05:03:56.431Z,44.47
2023-01-15T05:04:56.447Z,44.47
2023-01-15T05:05:56.413Z,44.47
2023-01-15T05:06:56.422Z,44.47
2023-01-15T05:07:56.398Z,44.47
2023-01-15T05:08:56.400Z,44.47
2023-01-15T05:09:56.372Z,44.47
2023-01-15T05:10:56.359Z,44.47
2023-01-15T05:12:53.165Z,44.47
2023-01-15T05:13:53.116Z,44.47
2023-01-15T05:14:53.121Z,44.47
2023-01-15T05:15:53.104Z,44.47
2023-01-15T05:16:53.099Z,44.47
2023-01-15T05:17:53.081Z,44.47
2023-01-15T05:18:53.101Z,44.47
2023-01-15T05:19:53.061Z,44.47
2023-01-15T05:20:53.041Z,44.47
2023-01-15T05:21:53.021Z,44.47
2023-01-15T05:22:53.056Z,44.47
2023-01-15T05:23:53.035Z,44.47
2023-01-15T05:24:53.010Z,44.47
2023-01-15T05:25:52.981Z,44.47
2023-01-15T05:26:53.001Z,44.47
2023-01-15T05:27:52.969Z,44.47
2023-01-15T05:28:52.971Z,44.47
2023-01-15T05:29:52.962Z,44.47
2023-01-15T05:30:52.987Z,44.47
2023-01-15T05:31:52.932Z,44.47
2023-01-15T05:32:52.943Z,44.47
2023-01-15T05:33:52.908Z,44.47
2023-01-15T05:34:52.916Z,44.47
2023-01-15T05:35:52.894Z,44.47
2023-01-15T05:36:52.890Z,44.47
2023-01-15T05:37:52.879Z,44.47
2023-01-15T05:38:52.888Z,44.47
2023-01-15T05:39:52.857Z,44.47
2023-01-15T05:40:52.829Z,44.47
2023-01-15T05:41:52.826Z,44.47
2023-01-15T05:42:52.878Z,44.47
2023-01-15T05:43:52.790Z,44.37
2023-01-15T05:44:52.833Z,44.37
2023-01-15T05:45:52.788Z,44.37
2023-01-15T05:46:52.802Z,44.37
2023-01-15T05:47:52.774Z,44.37
2023-01-15T05:48:52.780Z,44.47
2023-01-15T05:49:52.770Z,44.37
2023-01-15T05:50:52.740Z,44.37
2023-01-15T05:51:53.382Z,44.37
2023-01-15T05:52:52.722Z,44.37
2023-01-15T05:53:52.733Z,44.37
2023-01-15T05:54:52.712Z,44.37
2023-01-15T05:55:52.673Z,44.37
2023-01-15T05:56:52.718Z,44.37
2023-01-15T05:57:52.664Z,44.37
2023-01-15T05:58:52.667Z,44.37
2023-01-15T05:59:52.666Z,44.37
2023-01-15T06:00:52.661Z,44.37
2023-01-15T06:01:52.679Z,44.37
2023-01-15T06:02:52.698Z,44.37
2023-01-15T06:03:52.646Z,44.37
2023-01-15T06:04:52.611Z,44.37
2023-01-15T06:05:52.606Z,44.37
2023-01-15T06:06:52.572Z,44.37
2023-01-15T06:07:52.547Z,44.37
2023-01-15T06:08:52.561Z,44.37
2023-01-15T06:09:52.592Z,44.37
2023-01-15T06:10:52.570Z,44.37
2023-01-15T06:11:52.522Z,44.37
2023-01-15T06:12:52.522Z,44.47
2023-01-15T06:13:52.492Z,44.37
2023-01-15T06:14:52.493Z,44.37
2023-01-15T06:15:52.880Z,44.37
2023-01-15T06:16:52.468Z,44.37
2023-01-15T06:17:52.450Z,44.37
2023-01-15T06:18:52.459Z,44.47
2023-01-15T06:19:52.421Z,44.47
2023-01-15T06:20:52.443Z,44.37
2023-01-15T06:21:52.470Z,44.47
2023-01-15T06:22:52.430Z,44.37
2023-01-15T06:23:52.863Z,44.37
2023-01-15T06:24:52.396Z,44.47
2023-01-15T06:25:52.376Z,44.27
2023-01-15T06:26:52.499Z,44.37
2023-01-15T06:27:52.363Z,44.37
2023-01-15T06:28:52.362Z,44.37
2023-01-15T06:29:52.351Z,44.37
2023-01-15T06:30:52.342Z,44.27
2023-01-15T06:31:52.348Z,44.27
2023-01-15T06:32:52.301Z,44.27
2023-01-15T06:33:52.302Z,44.27
2023-01-15T06:34:52.302Z,44.27
2023-01-15T06:35:52.261Z,44.24
2023-01-15T06:36:52.262Z,44.24
2023-01-15T06:37:52.240Z,44.24
2023-01-15T06:38:52.252Z,44.15
2023-01-15T06:39:52.311Z,44.15
2023-01-15T06:40:52.235Z,44.15
2023-01-15T06:41:52.222Z,44.15
2023-01-15T06:42:52.212Z,44.04
2023-01-15T06:43:52.236Z,44.04
2023-01-15T06:44:52.195Z,44.15
2023-01-15T06:45:52.177Z,44.15
2023-01-15T06:46:52.259Z,44.04
2023-01-15T06:47:52.155Z,44.04
2023-01-15T06:48:52.161Z,44.04
2023-01-15T06:49:52.126Z,44.04
2023-01-15T06:50:52.131Z,43.95
2023-01-15T06:51:52.096Z,43.95
2023-01-15T06:52:52.152Z,43.92
2023-01-15T06:53:52.097Z,43.92
2023-01-15T06:54:52.158Z,43.92
2023-01-15T06:55:52.087Z,44.02
2023-01-15T06:56:52.159Z,43.92
2023-01-15T06:57:52.033Z,43.92
2023-01-15T06:58:52.061Z,43.92
2023-01-15T06:59:52.040Z,43.92
2023-01-15T07:00:52.139Z,43.92
2023-01-15T07:01:52.089Z,43.82
2023-01-15T07:02:52.072Z,43.82
2023-01-15T07:03:52.122Z,43.82
2023-01-15T07:04:52.110Z,43.82
2023-01-15T07:05:51.964Z,43.82
2023-01-15T07:06:51.974Z,43.82
2023-01-15T07:07:51.933Z,43.82
2023-01-15T07:08:51.963Z,43.82
2023-01-15T07:09:51.953Z,43.72
2023-01-15T07:10:51.957Z,43.82
2023-01-15T07:11:51.951Z,43.80
2023-01-15T07:12:51.910Z,43.70
2023-01-15T07:13:52.331Z,43.70
2023-01-15T07:14:51.874Z,43.70
2023-01-15T07:15:51.862Z,43.70
2023-01-15T07:16:51.881Z,43.70
2023-01-15T07:17:51.836Z,43.70
2023-01-15T07:18:51.872Z,43.70
2023-01-15T07:19:51.815Z,43.70
2023-01-15T07:20:51.823Z,43.70
2023-01-15T07:21:51.798Z,43.70
2023-01-15T07:22:51.801Z,43.70
2023-01-15T07:23:51.784Z,43.70
2023-01-15T07:24:51.815Z,43.70
2023-01-15T07:25:51.737Z,43.70
2023-01-15T07:26:51.808Z,43.60
2023-01-15T07:27:51.751Z,43.60
2023-01-15T07:28:51.741Z,43.70
2023-01-15T07:29:51.702Z,43.60
2023-01-15T07:30:51.722Z,43.60
2023-01-15T07:31:52.393Z,43.70
2023-01-15T07:32:51.720Z,43.60
2023-01-15T07:33:51.707Z,43.60
2023-01-15T07:34:51.666Z,43.60
2023-01-15T07:35:51.702Z,43.60
2023-01-15T07:36:51.672Z,43.60
2023-01-15T07:37:51.634Z,43.60
2023-01-15T07:38:51.673Z,43.60
2023-01-15T07:39:51.622Z,43.60
2023-01-15T07:40:51.667Z,43.60
2023-01-15T07:41:51.599Z,43.58
2023-01-15T07:42:51.602Z,43.48
2023-01-15T07:43:51.576Z,43.48
2023-01-15T07:44:51.576Z,43.48
2023-01-15T07:45:51.622Z,43.58
2023-01-15T07:46:51.558Z,43.48
2023-01-15T07:47:51.522Z,43.48
2023-01-15T07:48:51.531Z,43.48
2023-01-15T07:49:51.472Z,43.48
2023-01-15T07:50:51.520Z,43.48
2023-01-15T07:51:51.499Z,43.48
2023-01-15T07:52:53.268Z,43.48
2023-01-15T07:53:51.823Z,43.48
2023-01-15T07:54:51.475Z,43.48
2023-01-15T07:55:51.447Z,43.48
2023-01-15T07:56:51.452Z,43.48
2023-01-15T07:57:51.461Z,43.48
2023-01-15T07:58:51.442Z,43.48
2023-01-15T07:59:51.408Z,43.48
2023-01-15T08:00:51.451Z,43.48
2023-01-15T08:01:51.452Z,43.48
2023-01-15T08:02:52.356Z,43.48
2023-01-15T08:03:51.402Z,43.48
2023-01-15T08:04:51.373Z,43.38
2023-01-15T08:05:51.890Z,43.48
2023-01-15T08:06:51.355Z,43.48
2023-01-15T08:07:51.341Z,43.38
2023-01-15T08:08:51.324Z,43.38
2023-01-15T08:09:51.273Z,43.38
2023-01-15T08:10:51.254Z,43.38
2023-01-15T08:11:51.293Z,43.38
2023-01-15T08:12:51.291Z,43.28
2023-01-15T08:13:51.203Z,43.38
2023-01-15T08:14:51.394Z,43.38
2023-01-15T08:15:51.183Z,43.28
2023-01-15T08:16:51.203Z,43.28
2023-01-15T08:17:51.187Z,43.28
2023-01-15T08:18:51.186Z,43.28
2023-01-15T08:19:51.149Z,43.28
2023-01-15T08:20:51.181Z,43.28
2023-01-15T08:21:51.125Z,43.28
2023-01-15T08:22:51.152Z,43.28
2023-01-15T08:23:51.109Z,43.38
2023-01-15T08:24:51.119Z,43.28
2023-01-15T08:25:51.072Z,43.28
2023-01-15T08:26:51.203Z,43.38
2023-01-15T08:27:51.076Z,43.38
2023-01-15T08:28:51.059Z,43.28
2023-01-15T08:29:51.060Z,43.28
2023-01-15T08:30:51.043Z,43.38
2023-01-15T08:31:51.103Z,43.38
2023-01-15T08:32:51.097Z,43.28
2023-01-15T08:33:51.014Z,43.28
2023-01-15T08:34:51.023Z,43.28
2023-01-15T08:35:50.975Z,43.28
2023-01-15T08:36:51.015Z,43.28
2023-01-15T08:37:50.978Z,43.28
2023-01-15T08:38:50.964Z,43.18
2023-01-15T08:39:50.975Z,43.28
2023-01-15T08:40:50.943Z,43.26
2023-01-15T08:41:51.357Z,43.28
2023-01-15T08:42:50.933Z,43.16
2023-01-15T08:43:50.895Z,43.16
2023-01-15T08:44:50.908Z,43.26
2023-01-15T08:45:50.934Z,43.16
2023-01-15T08:46:50.913Z,43.16
2023-01-15T08:47:50.853Z,43.16
2023-01-15T08:48:50.867Z,43.06
2023-01-15T08:49:50.879Z,43.06
2023-01-15T08:50:50.848Z,43.06
2023-01-15T08:51:50.836Z,42.97
2023-01-15T08:52:50.827Z,42.97
2023-01-15T08:53:50.809Z,42.97
2023-01-15T08:54:50.807Z,42.97
2023-01-15T08:55:50.777Z,43.18
2023-01-15T08:56:50.965Z,43.18
2023-01-15T08:57:50.764Z,43.18
2023-01-15T08:58:50.773Z,43.18
2023-01-15T08:59:50.744Z,43.18
2023-01-15T09:00:50.802Z,43.38
2023-01-15T09:01:50.814Z,43.38
2023-01-15T09:02:50.699Z,43.48
2023-01-15T09:03:50.718Z,43.58
2023-01-15T09:04:50.698Z,43.68
2023-01-15T09:05:50.688Z,43.68
2023-01-15T09:06:50.685Z,43.68
2023-01-15T09:07:50.713Z,43.68
2023-01-15T09:08:50.639Z,43.68
2023-01-15T09:09:50.643Z,43.98
2023-01-15T09:10:50.633Z,44.59
2023-01-15T09:11:50.659Z,44.99
2023-01-15T09:12:50.606Z,45.89
2023-01-15T09:13:50.610Z,46.39
2023-01-15T09:15:00.275Z,46.69
2023-01-15T09:15:51.615Z,46.89
2023-01-15T09:16:50.651Z,47.09
2023-01-15T09:17:50.604Z,47.70
2023-01-15T09:18:50.536Z,47.90
2023-01-15T09:19:50.557Z,48.30
2023-01-15T09:20:50.905Z,48.50
2023-01-15T09:21:50.542Z,48.20
2023-01-15T09:22:50.498Z,48.40
2023-01-15T09:23:50.500Z,48.60
2023-01-15T09:24:50.465Z,48.40
2023-01-15T09:25:52.897Z,48.50
2023-01-15T09:26:50.505Z,48.60
2023-01-15T09:27:50.468Z,48.40
2023-01-15T09:28:50.446Z,48.60
2023-01-15T09:29:50.483Z,48.40
2023-01-15T09:30:50.440Z,48.60
2023-01-15T09:31:50.439Z,48.50
2023-01-15T09:32:50.405Z,48.40
2023-01-15T09:33:50.403Z,48.20
2023-01-15T09:34:50.375Z,48.10
2023-01-15T09:35:50.385Z,48.00
2023-01-15T09:36:50.932Z,48.00
2023-01-15T09:37:50.377Z,47.90
2023-01-15T09:38:50.370Z,47.90
2023-01-15T09:39:50.334Z,47.80
2023-01-15T09:40:50.312Z,47.70
2023-01-15T09:41:50.334Z,47.60
2023-01-15T09:42:50.347Z,47.47
2023-01-15T09:43:51.292Z,47.39
2023-01-15T09:44:50.308Z,47.38
2023-01-15T09:45:50.338Z,47.27
2023-01-15T09:46:50.248Z,47.17
2023-01-15T09:47:50.296Z,47.07
2023-01-15T09:48:50.239Z,47.07
2023-01-15T09:49:50.247Z,47.07
2023-01-15T09:50:50.213Z,47.07
2023-01-15T09:51:50.230Z,47.07
2023-01-15T09:52:50.221Z,46.97
2023-01-15T09:53:50.185Z,46.87
2023-01-15T09:54:50.169Z,46.87
2023-01-15T09:55:50.224Z,46.97
2023-01-15T09:56:50.155Z,46.87
2023-01-15T09:57:50.399Z,46.77
2023-01-15T09:58:50.136Z,46.77
2023-01-15T09:59:50.134Z,46.67
2023-01-15T10:00:50.109Z,46.67
2023-01-15T10:01:50.107Z,46.67
2023-01-15T10:02:50.161Z,46.67
2023-01-15T10:03:50.129Z,46.57
2023-01-15T10:04:50.057Z,46.57
2023-01-15T10:05:50.115Z,46.57
2023-01-15T10:06:50.054Z,46.47
2023-01-15T10:07:50.046Z,46.37
2023-01-15T10:08:50.050Z,46.47
2023-01-15T10:09:50.026Z,46.37
2023-01-15T10:10:50.959Z,46.37
2023-01-15T10:11:50.036Z,46.37
2023-01-15T10:13:46.758Z,46.27
2023-01-15T10:14:46.758Z,46.27
2023-01-15T10:15:46.854Z,46.17
2023-01-15T10:16:46.733Z,46.17
2023-01-15T10:17:48.502Z,46.07
2023-01-15T10:18:47.671Z,46.07
2023-01-15T10:19:46.670Z,46.07
2023-01-15T10:20:46.687Z,46.07
2023-01-15T10:21:46.652Z,45.97
2023-01-15T10:22:46.663Z,45.87
2023-01-15T10:23:46.667Z,45.87
2023-01-15T10:24:46.620Z,45.87
2023-01-15T10:25:46.606Z,45.87
2023-01-15T10:26:51.294Z,45.77
2023-01-15T10:27:46.578Z,45.77
2023-01-15T10:28:46.607Z,45.77
2023-01-15T10:29:46.569Z,45.77
2023-01-15T10:30:46.645Z,45.67
2023-01-15T10:31:46.547Z,45.67
2023-01-15T10:33:01.160Z,45.67
2023-01-15T10:33:47.532Z,45.67
2023-01-15T10:34:46.531Z,45.57
2023-01-15T10:35:46.531Z,45.57
2023-01-15T10:36:46.493Z,45.57
2023-01-15T10:37:46.539Z,45.47
2023-01-15T10:38:46.494Z,45.47
2023-01-15T10:39:46.461Z,45.47
2023-01-15T10:40:46.459Z,45.37
2023-01-15T10:41:46.453Z,45.37
2023-01-15T10:42:46.450Z,45.37
2023-01-15T10:43:46.424Z,45.37
2023-01-15T10:44:46.460Z,45.26
2023-01-15T10:45:46.438Z,45.26
2023-01-15T10:46:46.396Z,45.26
2023-01-15T10:47:46.383Z,45.26
2023-01-15T10:48:46.394Z,45.17
2023-01-15T10:49:46.358Z,45.17
2023-01-15T10:50:46.371Z,45.17
2023-01-15T10:51:46.388Z,45.17
2023-01-15T10:52:46.349Z,45.17
2023-01-15T10:53:46.320Z,45.06
2023-01-15T10:54:46.360Z,45.06
2023-01-15T10:55:46.283Z,45.06
2023-01-15T10:56:46.300Z,45.06
2023-01-15T10:57:46.265Z,44.96
2023-01-15T10:58:46.270Z,44.96
2023-01-15T10:59:46.429Z,44.96
2023-01-15T11:00:46.260Z,44.96
2023-01-15T11:01:46.330Z,44.96
2023-01-15T11:02:46.251Z,44.87
2023-01-15T11:03:46.199Z,44.87
2023-01-15T11:04:46.220Z,44.87
2023-01-15T11:05:46.353Z,44.87
2023-01-15T11:06:46.229Z,44.87
2023-01-15T11:08:06.473Z,44.76
2023-01-15T11:09:47.165Z,44.76
2023-01-15T11:10:46.161Z,44.67
2023-01-15T11:11:46.154Z,44.67
2023-01-15T11:12:46.130Z,44.67
2023-01-15T11:13:46.108Z,44.56
2023-01-15T11:14:46.147Z,44.56
2023-01-15T11:15:46.800Z,44.56
2023-01-15T11:16:46.092Z,44.56
2023-01-15T11:17:46.103Z,44.56
2023-01-15T11:18:46.070Z,44.56
2023-01-15T11:19:46.088Z,44.46
2023-01-15T11:20:46.068Z,44.46
2023-01-15T11:21:46.074Z,44.46
2023-01-15T11:22:46.022Z,44.46
2023-01-15T11:23:46.029Z,44.46
2023-01-15T11:24:46.006Z,44.46
2023-01-15T11:25:46.006Z,44.36
2023-01-15T11:26:50.683Z,44.36
2023-01-15T11:27:46.005Z,44.36
2023-01-15T11:28:45.974Z,44.36
2023-01-15T11:29:45.953Z,44.36
2023-01-15T11:30:45.947Z,44.26
2023-01-15T11:31:45.932Z,44.26
2023-01-15T11:32:45.931Z,44.26
2023-01-15T11:33:45.929Z,44.26
2023-01-15T11:34:45.887Z,44.26
2023-01-15T11:35:45.880Z,44.16
2023-01-15T11:36:45.896Z,44.26
2023-01-15T11:37:46.444Z,44.16
2023-01-15T11:38:45.842Z,44.16
2023-01-15T11:39:45.884Z,44.16
2023-01-15T11:40:45.835Z,44.16
2023-01-15T11:41:45.860Z,44.16
2023-01-15T11:42:45.812Z,44.06
2023-01-15T11:43:45.941Z,44.06
2023-01-15T11:44:45.781Z,44.16
2023-01-15T11:45:45.795Z,44.16
2023-01-15T11:46:45.831Z,44.06
2023-01-15T11:47:45.779Z,44.06
2023-01-15T11:48:45.770Z,44.06
2023-01-15T11:49:45.799Z,44.06
2023-01-15T11:50:45.730Z,44.06
2023-01-15T11:51:45.753Z,44.06
2023-01-15T11:52:45.716Z,43.96
2023-01-15T11:53:45.726Z,43.96
2023-01-15T11:54:45.690Z,43.96
2023-01-15T11:55:45.702Z,43.96
2023-01-15T11:56:47.522Z,43.96
2023-01-15T11:57:45.681Z,43.96
2023-01-15T11:58:45.643Z,43.96
2023-01-15T11:59:45.671Z,43.96
2023-01-15T12:00:45.662Z,43.96
2023-01-15T12:01:45.661Z,43.86
2023-01-15T12:02:45.598Z,43.86
2023-01-15T12:03:45.764Z,43.86
2023-01-15T12:04:45.682Z,43.96
2023-01-15T12:05:45.641Z,43.96
2023-01-15T12:06:45.610Z,43.86
2023-01-15T12:07:45.554Z,43.86
2023-01-15T12:08:45.538Z,43.86
2023-01-15T12:09:45.553Z,43.76
2023-01-15T12:10:45.516Z,43.76
2023-01-15T12:11:45.545Z,43.76
2023-01-15T12:12:45.503Z,43.76
2023-01-15T12:13:45.536Z,43.76
2023-01-15T12:14:45.473Z,43.76
2023-01-15T12:15:45.594Z,43.76
2023-01-15T12:16:45.471Z,43.76
2023-01-15T12:17:45.463Z,43.76
2023-01-15T12:18:45.447Z,43.76
2023-01-15T12:19:45.455Z,43.66
2023-01-15T12:20:45.434Z,43.66
2023-01-15T12:21:45.977Z,43.66
2023-01-15T12:22:45.405Z,43.66
2023-01-15T12:23:45.452Z,43.66
2023-01-15T12:24:45.373Z,43.66
2023-01-15T12:25:45.425Z,43.66
2023-01-15T12:26:50.203Z,43.66
2023-01-15T12:27:45.363Z,43.56
2023-01-15T12:28:45.338Z,43.66
2023-01-15T12:29:45.372Z,43.56
2023-01-15T12:30:45.314Z,43.66
2023-01-15T12:31:45.401Z,43.66
2023-01-15T12:32:45.334Z,43.66
2023-01-15T12:33:45.292Z,43.56
2023-01-15T12:34:45.304Z,43.56
2023-01-15T12:35:45.946Z,43.56
2023-01-15T12:36:45.268Z,43.56
2023-01-15T12:37:45.263Z,43.56
2023-01-15T12:38:45.226Z,43.56
2023-01-15T12:39:45.247Z,43.56
2023-01-15T12:40:45.215Z,43.56
2023-01-15T12:41:45.213Z,43.56
2023-01-15T12:42:45.204Z,43.56
2023-01-15T12:43:45.259Z,43.56
2023-01-15T12:44:45.204Z,43.56
2023-01-15T12:45:45.172Z,43.46
2023-01-15T12:46:45.288Z,43.46
2023-01-15T12:47:45.161Z,43.46
2023-01-15T12:48:45.157Z,43.46
2023-01-15T12:49:45.146Z,43.46
2023-01-15T12:50:45.326Z,43.46
2023-01-15T12:51:45.117Z,43.46
2023-01-15T12:52:45.097Z,43.46
2023-01-15T12:53:45.406Z,43.36
2023-01-15T12:54:45.073Z,43.46
2023-01-15T12:55:45.096Z,43.36